sensor_id;sensor_type;location;lat;lon;timestamp;P1;P2;P0
76045;PMS7003;64741;41.730;44.788;2023-03-01T00:01:43;5.2;4.2;3
76045;PMS7003;64741;41.730;44.788;2023-03-01T00:06:53;4.4;4.2;3
76045;PMS7003;64741;41.730;44.788;2023-03-01T00:11:51;6.2;5.2;4
76045;PMS7003;64741;41.730;44.788;2023-03-01T00:16:57;5;4.2;2.8
76045;PMS7003;64741;41.730;44.788;2023-03-01T00:21:51;5.2;4.6;3.8
76045;PMS7003;64741;41.730;44.788;2023-03-01T00:26:57;6.2;5;3.8
76045;PMS7003;64741;41.730;44.788;2023-03-01T00:31:45;5.6;4.4;3.2
76045;PMS7003;64741;41.730;44.788;2023-03-01T00:36:49;4.8;4.2;3.2
76045;PMS7003;64741;41.730;44.788;2023-03-01T00:41:57;5.8;3.8;2.8
76045;PMS7003;64741;41.730;44.788;2023-03-01T00:46:51;5;4.2;3
76045;PMS7003;64741;41.730;44.788;2023-03-01T00:51:59;4.8;3.6;2.8
76045;PMS7003;64741;41.730;44.788;2023-03-01T00:56:53;5.2;4.4;2.4
76045;PMS7003;64741;41.730;44.788;2023-03-01T01:01:49;6.2;4.2;2.8
76045;PMS7003;64741;41.730;44.788;2023-03-01T01:06:57;5.4;5.4;3.8
76045;PMS7003;64741;41.730;44.788;2023-03-01T01:11:57;4.2;4;3
76045;PMS7003;64741;41.730;44.788;2023-03-01T01:16:53;5;3.8;2.8
76045;PMS7003;64741;41.730;44.788;2023-03-01T01:21:59;5.2;4.6;3.2
76045;PMS7003;64741;41.730;44.788;2023-03-01T01:26:51;3.4;3.2;2.4
76045;PMS7003;64741;41.730;44.788;2023-03-01T01:31:49;4.6;4;2.8
76045;PMS7003;64741;41.730;44.788;2023-03-01T01:36:57;3.6;3;2
76045;PMS7003;64741;41.730;44.788;2023-03-01T01:41:51;4.6;3.6;2.2
76045;PMS7003;64741;41.730;44.788;2023-03-01T01:47:00;5.4;3.8;2.6
76045;PMS7003;64741;41.730;44.788;2023-03-01T01:51:53;4;3.5;2.5
76045;PMS7003;64741;41.730;44.788;2023-03-01T01:56:52;4.4;4;3
76045;PMS7003;64741;41.730;44.788;2023-03-01T02:01:58;3.8;3.4;2.4
76045;PMS7003;64741;41.730;44.788;2023-03-01T02:06:53;5.2;3.8;2.8
76045;PMS7003;64741;41.730;44.788;2023-03-01T02:11:59;4;3.2;2.6
76045;PMS7003;64741;41.730;44.788;2023-03-01T02:16:53;3;2.6;2
76045;PMS7003;64741;41.730;44.788;2023-03-01T02:21:52;5.4;4.8;3
76045;PMS7003;64741;41.730;44.788;2023-03-01T02:26:57;3.6;3;2.4
76045;PMS7003;64741;41.730;44.788;2023-03-01T02:31:45;4;3.4;2.4
76045;PMS7003;64741;41.730;44.788;2023-03-01T02:36:24;4.4;4;3
76045;PMS7003;64741;41.730;44.788;2023-03-01T02:41:54;4.8;4;2.6
76045;PMS7003;64741;41.730;44.788;2023-03-01T02:46:42;3.4;2.8;2.2
76045;PMS7003;64741;41.730;44.788;2023-03-01T02:52:05;5.4;3.6;2.8
76045;PMS7003;64741;41.730;44.788;2023-03-01T02:56:17;4;3.4;2.4
76045;PMS7003;64741;41.730;44.788;2023-03-01T03:02:00;4.6;4.6;3.4
76045;PMS7003;64741;41.730;44.788;2023-03-01T03:06:53;3.6;3.6;2
76045;PMS7003;64741;41.730;44.788;2023-03-01T03:11:51;4;3.8;2.4
76045;PMS7003;64741;41.730;44.788;2023-03-01T03:16:57;4.6;3.6;2.8
76045;PMS7003;64741;41.730;44.788;2023-03-01T03:21:31;5;3.8;2.8
76045;PMS7003;64741;41.730;44.788;2023-03-01T03:26:59;4.8;4.4;3.2
76045;PMS7003;64741;41.730;44.788;2023-03-01T03:31:51;4.8;4;2.6
76045;PMS7003;64741;41.730;44.788;2023-03-01T03:36:52;3.2;3;2.2
76045;PMS7003;64741;41.730;44.788;2023-03-01T03:41:57;3.4;3;2
76045;PMS7003;64741;41.730;44.788;2023-03-01T03:46:53;3.6;3.2;2.2
76045;PMS7003;64741;41.730;44.788;2023-03-01T03:51:57;3.6;2.8;2
76045;PMS7003;64741;41.730;44.788;2023-03-01T03:56:51;3.6;3.4;2.4
76045;PMS7003;64741;41.730;44.788;2023-03-01T04:01:49;3.8;3.4;2
76045;PMS7003;64741;41.730;44.788;2023-03-01T04:06:55;3.8;3.2;2.2
76045;PMS7003;64741;41.730;44.788;2023-03-01T04:11:53;4.4;3.6;2.6
76045;PMS7003;64741;41.730;44.788;2023-03-01T04:16:59;4.4;3.4;2.2
76045;PMS7003;64741;41.730;44.788;2023-03-01T04:21:53;4.4;3.8;2.6
76045;PMS7003;64741;41.730;44.788;2023-03-01T04:26:51;4.6;3.8;2.4
76045;PMS7003;64741;41.730;44.788;2023-03-01T04:31:57;5;4.2;3.2
76045;PMS7003;64741;41.730;44.788;2023-03-01T04:36:49;4.6;3.8;2.8
76045;PMS7003;64741;41.730;44.788;2023-03-01T04:41:57;5.8;4.6;3
76045;PMS7003;64741;41.730;44.788;2023-03-01T04:46:51;4.6;3.8;2.8
76045;PMS7003;64741;41.730;44.788;2023-03-01T04:51:51;4.6;3.6;2.4
76045;PMS7003;64741;41.730;44.788;2023-03-01T04:56:55;3.8;3.2;2.2
76045;PMS7003;64741;41.730;44.788;2023-03-01T05:01:49;5.6;5;2.8
76045;PMS7003;64741;41.730;44.788;2023-03-01T05:06:57;5.4;4.4;3.2
76045;PMS7003;64741;41.730;44.788;2023-03-01T05:11:51;6.6;4.6;3.4
76045;PMS7003;64741;41.730;44.788;2023-03-01T05:16:49;4.4;4.4;3.2
76045;PMS7003;64741;41.730;44.788;2023-03-01T05:21:53;4;3.6;2.8
76045;PMS7003;64741;41.730;44.788;2023-03-01T05:26:47;7;5.6;3.4
76045;PMS7003;64741;41.730;44.788;2023-03-01T05:31:56;4.8;4.4;2.6
76045;PMS7003;64741;41.730;44.788;2023-03-01T05:36:41;5.6;4.6;3.4
76045;PMS7003;64741;41.730;44.788;2023-03-01T05:41:51;5.8;5;3.4
76045;PMS7003;64741;41.730;44.788;2023-03-01T05:46:57;6;4.6;3.2
76045;PMS7003;64741;41.730;44.788;2023-03-01T05:51:50;7.2;5.8;4.4
76045;PMS7003;64741;41.730;44.788;2023-03-01T05:56:55;5.8;5;3.6
76045;PMS7003;64741;41.730;44.788;2023-03-01T06:01:53;6.8;5.6;3.6
76045;PMS7003;64741;41.730;44.788;2023-03-01T06:06:49;5.8;5.2;4
76045;PMS7003;64741;41.730;44.788;2023-03-01T06:11:57;5.4;5;3.8
76045;PMS7003;64741;41.730;44.788;2023-03-01T06:16:51;6.2;4.8;3.8
76045;PMS7003;64741;41.730;44.788;2023-03-01T06:21:57;5.2;4.6;3.2
76045;PMS7003;64741;41.730;44.788;2023-03-01T06:26:53;6.4;5.6;3.8
76045;PMS7003;64741;41.730;44.788;2023-03-01T06:31:39;5.4;4.8;3.4
76045;PMS7003;64741;41.730;44.788;2023-03-01T06:36:57;4.6;3.6;3
76045;PMS7003;64741;41.730;44.788;2023-03-01T06:41:49;5.6;4.6;3.2
76045;PMS7003;64741;41.730;44.788;2023-03-01T06:46:43;4.6;3.6;2.6
76045;PMS7003;64741;41.730;44.788;2023-03-01T06:51:53;5.2;4.6;3.2
76045;PMS7003;64741;41.730;44.788;2023-03-01T06:56:51;6;4.8;3.4
76045;PMS7003;64741;41.730;44.788;2023-03-01T07:01:57;4.5;4.5;3.3
76045;PMS7003;64741;41.730;44.788;2023-03-01T07:06:53;5.6;4.6;3.2
76045;PMS7003;64741;41.730;44.788;2023-03-01T07:11:57;5.2;4.8;3
76045;PMS7003;64741;41.730;44.788;2023-03-01T07:16:57;3.6;3.4;2.8
76045;PMS7003;64741;41.730;44.788;2023-03-01T07:21:55;6.4;5.2;4
76045;PMS7003;64741;41.730;44.788;2023-03-01T07:27:01;4.6;3.8;3
76045;PMS7003;64741;41.730;44.788;2023-03-01T07:31:55;4.2;4.2;2.8
76045;PMS7003;64741;41.730;44.788;2023-03-01T07:36:59;4;3.6;2.4
76045;PMS7003;64741;41.730;44.788;2023-03-01T07:41:57;5.8;3.6;2.4
76045;PMS7003;64741;41.730;44.788;2023-03-01T07:46:55;4.4;3.8;3
76045;PMS7003;64741;41.730;44.788;2023-03-01T07:52:01;4.8;3.8;3
76045;PMS7003;64741;41.730;44.788;2023-03-01T07:56:56;4.4;3.8;2.8
76045;PMS7003;64741;41.730;44.788;2023-03-01T08:01:57;5;4.8;3.4
76045;PMS7003;64741;41.730;44.788;2023-03-01T08:06:53;5.6;3.6;2.6
76045;PMS7003;64741;41.730;44.788;2023-03-01T08:11:53;5.4;4.6;3.4
76045;PMS7003;64741;41.730;44.788;2023-03-01T08:16:59;9.2;8;6.2
76045;PMS7003;64741;41.730;44.788;2023-03-01T08:21:53;8.4;7.8;6
76045;PMS7003;64741;41.730;44.788;2023-03-01T08:26:55;8.8;7.6;5.6
76045;PMS7003;64741;41.730;44.788;2023-03-01T08:31:57;9.2;7.8;6.4
76045;PMS7003;64741;41.730;44.788;2023-03-01T08:36:55;10.6;9.2;6.8
76045;PMS7003;64741;41.730;44.788;2023-03-01T08:41:59;16.4;13.8;10.6
76045;PMS7003;64741;41.730;44.788;2023-03-01T08:46:55;19.8;16.4;11.6
76045;PMS7003;64741;41.730;44.788;2023-03-01T08:51:57;20;16.2;11.8
76045;PMS7003;64741;41.730;44.788;2023-03-01T08:56:53;17.6;15.6;11.2
76045;PMS7003;64741;41.730;44.788;2023-03-01T09:01:53;18.8;15.8;11.2
76045;PMS7003;64741;41.730;44.788;2023-03-01T09:06:59;16;14;10.2
76045;PMS7003;64741;41.730;44.788;2023-03-01T09:11:53;17;16;11.2
76045;PMS7003;64741;41.730;44.788;2023-03-01T09:16:57;15.2;13.2;9.2
76045;PMS7003;64741;41.730;44.788;2023-03-01T09:21:10;15.2;14.2;9.6
76045;PMS7003;64741;41.730;44.788;2023-03-01T09:26:59;15.8;13.4;10
76045;PMS7003;64741;41.730;44.788;2023-03-01T09:31:55;14.6;11.4;7.8
76045;PMS7003;64741;41.730;44.788;2023-03-01T09:36:57;12.6;12.2;9.4
76045;PMS7003;64741;41.730;44.788;2023-03-01T09:41:49;11.4;9.8;8
76045;PMS7003;64741;41.730;44.788;2023-03-01T09:46:53;12.2;10;7
76045;PMS7003;64741;41.730;44.788;2023-03-01T09:51:59;12.4;10.6;7.2
76045;PMS7003;64741;41.730;44.788;2023-03-01T09:57:03;14;9.6;7
76045;PMS7003;64741;41.730;44.788;2023-03-01T10:01:56;9.4;8.2;6.6
76045;PMS7003;64741;41.730;44.788;2023-03-01T10:06:31;10.2;9.2;6.6
76045;PMS7003;64741;41.730;44.788;2023-03-01T10:11:52;9.6;8.8;6.8
76045;PMS7003;64741;41.730;44.788;2023-03-01T10:16:58;10;8.6;6.2
76045;PMS7003;64741;41.730;44.788;2023-03-01T10:21:56;9.8;8.2;6
76045;PMS7003;64741;41.730;44.788;2023-03-01T10:26:55;9.6;8;6
76045;PMS7003;64741;41.730;44.788;2023-03-01T10:31:57;10;8;5.8
76045;PMS7003;64741;41.730;44.788;2023-03-01T10:36:55;8.4;7.2;5.8
76045;PMS7003;64741;41.730;44.788;2023-03-01T10:41:58;9.4;9.2;6.2
76045;PMS7003;64741;41.730;44.788;2023-03-01T10:46:58;10.6;9.8;6.8
76045;PMS7003;64741;41.730;44.788;2023-03-01T10:51:53;11.6;9;6.6
76045;PMS7003;64741;41.730;44.788;2023-03-01T10:56:58;11.4;10.4;7.4
76045;PMS7003;64741;41.730;44.788;2023-03-01T11:01:37;11.2;10;7.4
76045;PMS7003;64741;41.730;44.788;2023-03-01T11:06:58;10.2;8.2;6
76045;PMS7003;64741;41.730;44.788;2023-03-01T11:11:53;16;13.4;9.6
76045;PMS7003;64741;41.730;44.788;2023-03-01T11:16:59;31.8;27;18.2
76045;PMS7003;64741;41.730;44.788;2023-03-01T11:21:59;37.4;30.6;19.8
76045;PMS7003;64741;41.730;44.788;2023-03-01T11:26:53;38.8;31.6;21
76045;PMS7003;64741;41.730;44.788;2023-03-01T11:31:58;43.2;34.6;24
76045;PMS7003;64741;41.730;44.788;2023-03-01T11:36:52;43.4;34.4;23.4
76045;PMS7003;64741;41.730;44.788;2023-03-01T11:41:59;47.2;36.6;24.8
76045;PMS7003;64741;41.730;44.788;2023-03-01T11:47:02;45;35.4;23.4
76045;PMS7003;64741;41.730;44.788;2023-03-01T11:51:52;45.2;35.8;23.4
76045;PMS7003;64741;41.730;44.788;2023-03-01T11:56:57;46.4;36.2;23.2
76045;PMS7003;64741;41.730;44.788;2023-03-01T12:01:45;43.8;34.4;23.2
76045;PMS7003;64741;41.730;44.788;2023-03-01T12:06:52;46.6;35.4;23.2
76045;PMS7003;64741;41.730;44.788;2023-03-01T12:11:57;42;33.8;23
76045;PMS7003;64741;41.730;44.788;2023-03-01T12:16:28;41.8;34.4;23
76045;PMS7003;64741;41.730;44.788;2023-03-01T12:21:48;41;33.2;22.4
76045;PMS7003;64741;41.730;44.788;2023-03-01T12:26:54;44.6;34.6;23.4
76045;PMS7003;64741;41.730;44.788;2023-03-01T12:32:00;40.8;33.2;22.2
76045;PMS7003;64741;41.730;44.788;2023-03-01T12:36:59;41.4;33.2;21.8
76045;PMS7003;64741;41.730;44.788;2023-03-01T12:41:54;39.4;31.6;21.6
76045;PMS7003;64741;41.730;44.788;2023-03-01T12:46:58;40.6;32;21.8
76045;PMS7003;64741;41.730;44.788;2023-03-01T12:51:51;36.8;30.8;21
76045;PMS7003;64741;41.730;44.788;2023-03-01T12:56:53;39;31.6;21.2
76045;PMS7003;64741;41.730;44.788;2023-03-01T13:02:01;37.6;29.8;20.4
76045;PMS7003;64741;41.730;44.788;2023-03-01T13:06:57;35.2;30;20.4
76045;PMS7003;64741;41.730;44.788;2023-03-01T13:11:57;35.2;29.2;19.2
76045;PMS7003;64741;41.730;44.788;2023-03-01T13:16:57;32.2;27.8;18.8
76045;PMS7003;64741;41.730;44.788;2023-03-01T13:21:53;32.6;26.4;18.4
76045;PMS7003;64741;41.730;44.788;2023-03-01T13:27:21;32.8;28.2;19.6
76045;PMS7003;64741;41.730;44.788;2023-03-01T13:48:10;29.5;25.5;17.5
76045;PMS7003;64741;41.730;44.788;2023-03-01T14:08:23;29;24;16
76045;PMS7003;64741;41.730;44.788;2023-03-01T14:14:09;27.6;22;16
76045;PMS7003;64741;41.730;44.788;2023-03-01T14:19:06;27.6;24.2;17
76045;PMS7003;64741;41.730;44.788;2023-03-01T14:23:34;27.4;22.8;15.4
76045;PMS7003;64741;41.730;44.788;2023-03-01T14:29:04;29.2;25.8;17.8
76045;PMS7003;64741;41.730;44.788;2023-03-01T14:34:04;33.6;28.6;19.6
76045;PMS7003;64741;41.730;44.788;2023-03-01T14:39:15;35.8;30.4;20.8
76045;PMS7003;64741;41.730;44.788;2023-03-01T14:44:05;35.4;30.8;21.2
76045;PMS7003;64741;41.730;44.788;2023-03-01T14:49:09;40.6;33.6;22.8
76045;PMS7003;64741;41.730;44.788;2023-03-01T14:54:10;41;33.2;22
76045;PMS7003;64741;41.730;44.788;2023-03-01T14:59:07;37;31.2;21
76045;PMS7003;64741;41.730;44.788;2023-03-01T15:04:06;38.2;31.6;21.8
76045;PMS7003;64741;41.730;44.788;2023-03-01T15:09:04;37.6;31.8;21.6
76045;PMS7003;64741;41.730;44.788;2023-03-01T15:14:24;37.6;31;21.2
76045;PMS7003;64741;41.730;44.788;2023-03-01T15:19:05;37.6;31;21.6
76045;PMS7003;64741;41.730;44.788;2023-03-01T15:24:07;36.4;30.8;20.8
76045;PMS7003;64741;41.730;44.788;2023-03-01T15:29:11;34.4;29.6;20.4
76045;PMS7003;64741;41.730;44.788;2023-03-01T15:34:09;29;25.8;19
76045;PMS7003;64741;41.730;44.788;2023-03-01T15:39:22;34.2;27;19.2
76045;PMS7003;64741;41.730;44.788;2023-03-01T15:44:14;31;26.8;18.2
76045;PMS7003;64741;41.730;44.788;2023-03-01T15:54:11;31.3;28;19.5
76045;PMS7003;64741;41.730;44.788;2023-03-01T15:59:02;32.4;27.6;19
76045;PMS7003;64741;41.730;44.788;2023-03-01T16:04:04;26.6;24.4;19
76045;PMS7003;64741;41.730;44.788;2023-03-01T16:09:04;30.4;24.6;17.6
76045;PMS7003;64741;41.730;44.788;2023-03-01T16:14:07;26.8;23.8;17.8
76045;PMS7003;64741;41.730;44.788;2023-03-01T16:19:08;26.4;23.2;15.8
76045;PMS7003;64741;41.730;44.788;2023-03-01T16:24:05;27.6;23;16
76045;PMS7003;64741;41.730;44.788;2023-03-01T16:29:06;27.6;23.6;16.8
76045;PMS7003;64741;41.730;44.788;2023-03-01T16:34:04;25.6;22.6;16.4
76045;PMS7003;64741;41.730;44.788;2023-03-01T16:39:06;26.6;23.8;17.2
76045;PMS7003;64741;41.730;44.788;2023-03-01T16:44:06;23.8;22.4;16.2
76045;PMS7003;64741;41.730;44.788;2023-03-01T16:49:04;26.6;22;14.8
76045;PMS7003;64741;41.730;44.788;2023-03-01T16:54:06;22.8;20.6;15.2
76045;PMS7003;64741;41.730;44.788;2023-03-01T16:59:03;24.2;20.6;15.2
76045;PMS7003;64741;41.730;44.788;2023-03-01T17:04:06;23.6;21;14.6
76045;PMS7003;64741;41.730;44.788;2023-03-01T17:09:06;22.8;19.6;14.8
76045;PMS7003;64741;41.730;44.788;2023-03-01T17:14:04;22.2;19.4;14.2
76045;PMS7003;64741;41.730;44.788;2023-03-01T17:19:06;22;18.8;14
76045;PMS7003;64741;41.730;44.788;2023-03-01T17:24:08;21;19;14.4
76045;PMS7003;64741;41.730;44.788;2023-03-01T17:28:54;17.4;16.2;12
76045;PMS7003;64741;41.730;44.788;2023-03-01T17:33:54;20.4;17.8;12.8
76045;PMS7003;64741;41.730;44.788;2023-03-01T17:39:04;19.2;16.8;12.2
76045;PMS7003;64741;41.730;44.788;2023-03-01T17:44:04;19.4;16.6;12
76045;PMS7003;64741;41.730;44.788;2023-03-01T17:49:08;16.2;14.4;11
76045;PMS7003;64741;41.730;44.788;2023-03-01T17:54:04;16.6;14;10.4
76045;PMS7003;64741;41.730;44.788;2023-03-01T17:59:08;15.8;13.6;9.4
76045;PMS7003;64741;41.730;44.788;2023-03-01T18:04:06;15.4;13.4;9.4
76045;PMS7003;64741;41.730;44.788;2023-03-01T18:09:06;12.6;11.8;9.8
76045;PMS7003;64741;41.730;44.788;2023-03-01T18:13:58;13;11;8.4
76045;PMS7003;64741;41.730;44.788;2023-03-01T18:19:06;14.4;11.6;8.8
76045;PMS7003;64741;41.730;44.788;2023-03-01T18:24:06;13.8;12;8.8
76045;PMS7003;64741;41.730;44.788;2023-03-01T18:29:06;13.2;12;8.8
76045;PMS7003;64741;41.730;44.788;2023-03-01T18:34:08;13.2;11.6;8.8
76045;PMS7003;64741;41.730;44.788;2023-03-01T18:39:10;12.4;10.8;8
76045;PMS7003;64741;41.730;44.788;2023-03-01T18:44:06;11.8;9.8;7.4
76045;PMS7003;64741;41.730;44.788;2023-03-01T18:48:32;13;11.2;7.6
76045;PMS7003;64741;41.730;44.788;2023-03-01T18:54:06;12.8;10.6;8.4
76045;PMS7003;64741;41.730;44.788;2023-03-01T18:59:08;10.6;9.2;6.8
76045;PMS7003;64741;41.730;44.788;2023-03-01T19:04:10;10.2;9.4;7.2
76045;PMS7003;64741;41.730;44.788;2023-03-01T19:09:04;13.6;12;7.8
76045;PMS7003;64741;41.730;44.788;2023-03-01T19:13:58;13.4;10.2;7.4
76045;PMS7003;64741;41.730;44.788;2023-03-01T19:19:06;19;16.4;12.4
76045;PMS7003;64741;41.730;44.788;2023-03-01T19:24:08;19;16.6;12
76045;PMS7003;64741;41.730;44.788;2023-03-01T19:29:08;18;15.2;11.4
76045;PMS7003;64741;41.730;44.788;2023-03-01T19:34:04;16.6;13.6;10.2
76045;PMS7003;64741;41.730;44.788;2023-03-01T19:39:05;14.4;13.6;10.2
76045;PMS7003;64741;41.730;44.788;2023-03-01T19:44:04;14.6;13.6;10.4
76045;PMS7003;64741;41.730;44.788;2023-03-01T19:49:04;14.4;12.8;10
76045;PMS7003;64741;41.730;44.788;2023-03-01T19:54:08;12.8;10.8;8.2
76045;PMS7003;64741;41.730;44.788;2023-03-01T19:59:04;9.8;9;7.2
76045;PMS7003;64741;41.730;44.788;2023-03-01T20:04:04;10.8;9.2;7
76045;PMS7003;64741;41.730;44.788;2023-03-01T20:09:02;11.6;10.6;8.2
76045;PMS7003;64741;41.730;44.788;2023-03-01T20:14:06;11;9;7.4
76045;PMS7003;64741;41.730;44.788;2023-03-01T20:19:08;11.6;9.4;7.2
76045;PMS7003;64741;41.730;44.788;2023-03-01T20:24:04;9.2;7.8;5
76045;PMS7003;64741;41.730;44.788;2023-03-01T20:29:08;9.6;8.6;6.4
76045;PMS7003;64741;41.730;44.788;2023-03-01T20:34:06;9;7.8;6
76045;PMS7003;64741;41.730;44.788;2023-03-01T20:38:56;9.2;8;6
76045;PMS7003;64741;41.730;44.788;2023-03-01T20:44:08;8.6;7;5.6
76045;PMS7003;64741;41.730;44.788;2023-03-01T20:49:04;8.8;8.2;6
76045;PMS7003;64741;41.730;44.788;2023-03-01T20:54:06;12;9.6;7
76045;PMS7003;64741;41.730;44.788;2023-03-01T20:59:06;8;6.8;5
76045;PMS7003;64741;41.730;44.788;2023-03-01T21:04:10;9.8;8;5.8
76045;PMS7003;64741;41.730;44.788;2023-03-01T21:09:02;9.2;7.2;5.8
76045;PMS7003;64741;41.730;44.788;2023-03-01T21:14:06;8.2;7.2;5.4
76045;PMS7003;64741;41.730;44.788;2023-03-01T21:18:54;8.6;6.8;5
76045;PMS7003;64741;41.730;44.788;2023-03-01T21:24:06;8.4;6.2;4.4
76045;PMS7003;64741;41.730;44.788;2023-03-01T21:29:10;7.6;6.8;5
76045;PMS7003;64741;41.730;44.788;2023-03-01T21:34:04;8.6;6.8;5
76045;PMS7003;64741;41.730;44.788;2023-03-01T21:39:04;9;7;4.8
76045;PMS7003;64741;41.730;44.788;2023-03-01T21:44:04;7;6.4;5
76045;PMS7003;64741;41.730;44.788;2023-03-01T21:48:20;7.6;7;5.6
76045;PMS7003;64741;41.730;44.788;2023-03-01T21:54:08;7.2;5.6;4.8
76045;PMS7003;64741;41.730;44.788;2023-03-01T21:59:04;8.6;6.8;4.8
76045;PMS7003;64741;41.730;44.788;2023-03-01T22:03:54;8.2;7;4.8
76045;PMS7003;64741;41.730;44.788;2023-03-01T22:09:02;8;6.6;4.6
76045;PMS7003;64741;41.730;44.788;2023-03-01T22:14:04;7;6;4.6
76045;PMS7003;64741;41.730;44.788;2023-03-01T22:19:08;7.8;5.4;4
76045;PMS7003;64741;41.730;44.788;2023-03-01T22:24:04;8.8;6.8;4.8
76045;PMS7003;64741;41.730;44.788;2023-03-01T22:29:06;6.6;6;5
76045;PMS7003;64741;41.730;44.788;2023-03-01T22:34:02;7.8;6.6;4.6
76045;PMS7003;64741;41.730;44.788;2023-03-01T22:39:02;7.2;6.4;4.6
76045;PMS7003;64741;41.730;44.788;2023-03-01T22:44:06;6.6;6;4.8
76045;PMS7003;64741;41.730;44.788;2023-03-01T22:49:02;5.8;5.6;4.4
76045;PMS7003;64741;41.730;44.788;2023-03-01T22:54:06;7.2;6.4;4.4
76045;PMS7003;64741;41.730;44.788;2023-03-01T22:59:04;6.4;5.2;4.2
76045;PMS7003;64741;41.730;44.788;2023-03-01T23:04:04;6.8;5.6;4.4
76045;PMS7003;64741;41.730;44.788;2023-03-01T23:09:08;7;6.2;4.4
76045;PMS7003;64741;41.730;44.788;2023-03-01T23:14:04;7.2;6;4.4
76045;PMS7003;64741;41.730;44.788;2023-03-01T23:19:06;6.4;5.2;4.2
76045;PMS7003;64741;41.730;44.788;2023-03-01T23:24:04;5.8;5.2;3.8
76045;PMS7003;64741;41.730;44.788;2023-03-01T23:29:04;5.8;4.8;3.8
76045;PMS7003;64741;41.730;44.788;2023-03-01T23:34:08;7;5.4;4
76045;PMS7003;64741;41.730;44.788;2023-03-01T23:39:05;5.8;5;3.8
76045;PMS7003;64741;41.730;44.788;2023-03-01T23:44:06;6.8;5;3.6
76045;PMS7003;64741;41.730;44.788;2023-03-01T23:49:02;5.8;5.6;4
76045;PMS7003;64741;41.730;44.788;2023-03-01T23:54:04;5.6;4.6;3.8
76045;PMS7003;64741;41.730;44.788;2023-03-01T23:59:09;5.6;5.4;4
